N59E KASE-KORL
Flight info
| Callsign | N59E |
|---|---|
| Flight time | N/A |
| Altitude | 45000 |
| Route | LINDZ1 LINDZ IDENE JNETT POWDR HGO TUL LIT MGM DAWWN MJKAL JAFAR3 |
| Aircraft | C750/M-SBDE3FGHRWXY/S |
Departure
| Time | N/A |
|---|---|
| Airport | Aspen-Pitkin County Airport (Sardy Field) (KASE) |
Arrival
| Time | 2026-05-04 17:16 |
|---|---|
| Airport | Orlando Executive Airport (KORL) |
| Time | Latitude | Longitude | Altitude | Speed | Heading |
|---|---|---|---|---|---|
| 2026-05-04 17:06 | 28.51528 | -81.59296 | 6010 ft | 261 kts | 141° |
| 2026-05-04 17:06 | 28.50093 | -81.58044 | 5377 ft | 258 kts | 141° |
| 2026-05-04 17:07 | 28.47290 | -81.55611 | 4136 ft | 253 kts | 140° |
| 2026-05-04 17:07 | 28.46311 | -81.54877 | 3702 ft | 254 kts | 153° |
| 2026-05-04 17:07 | 28.43986 | -81.54861 | 2864 ft | 261 kts | 202° |
| 2026-05-04 17:07 | 28.42638 | -81.56181 | 2260 ft | 262 kts | 238° |
| 2026-05-04 17:08 | 28.41917 | -81.58006 | 2092 ft | 243 kts | 246° |
| 2026-05-04 17:08 | 28.40634 | -81.61327 | 2061 ft | 221 kts | 246° |
| 2026-05-04 17:08 | 28.40154 | -81.62951 | 2037 ft | 214 kts | 269° |
| 2026-05-04 17:09 | 28.40591 | -81.64471 | 2057 ft | 201 kts | 314° |
| 2026-05-04 17:09 | 28.41761 | -81.65194 | 2063 ft | 188 kts | 358° |
| 2026-05-04 17:09 | 28.42963 | -81.64792 | 2069 ft | 182 kts | 43° |
| 2026-05-04 17:10 | 28.43686 | -81.62113 | 2077 ft | 187 kts | 73° |
| 2026-05-04 17:10 | 28.45158 | -81.57831 | 2071 ft | 199 kts | 66° |
| 2026-05-04 17:11 | 28.45719 | -81.56368 | 2069 ft | 201 kts | 66° |
| 2026-05-04 17:11 | 28.46282 | -81.54913 | 2072 ft | 201 kts | 66° |
| 2026-05-04 17:11 | 28.47446 | -81.52063 | 2068 ft | 199 kts | 65° |
| 2026-05-04 17:12 | 28.48031 | -81.50644 | 2068 ft | 198 kts | 65° |
| 2026-05-04 17:12 | 28.49169 | -81.47881 | 2044 ft | 177 kts | 65° |
| 2026-05-04 17:13 | 28.50454 | -81.44518 | 1972 ft | 149 kts | 78° |
| 2026-05-04 17:14 | 28.51541 | -81.41078 | 1457 ft | 152 kts | 66° |
| 2026-05-04 17:14 | 28.51958 | -81.39991 | 1238 ft | 148 kts | 66° |
| 2026-05-04 17:14 | 28.52721 | -81.37971 | 786 ft | 131 kts | 68° |
| 2026-05-04 17:15 | 28.53086 | -81.37059 | 590 ft | 125 kts | 63° |
| 2026-05-04 17:15 | 28.53782 | -81.35288 | 303 ft | 127 kts | 64° |
| 2026-05-04 17:16 | 28.54423 | -81.33556 | 104 ft | 106 kts | 67° |
| 2026-05-04 17:16 | 28.54741 | -81.32800 | 111 ft | 4 kts | 1° |
| 2026-05-04 17:17 | 28.54756 | -81.32821 | 110 ft | 5 kts | 300° |
| 2026-05-04 17:17 | 28.54775 | -81.33024 | 110 ft | 13 kts | 245° |
| 2026-05-04 17:18 | 28.54734 | -81.33132 | 110 ft | 15 kts | 247° |
| 2026-05-04 17:18 | 28.54703 | -81.33390 | 107 ft | 18 kts | 263° |
| 2026-05-04 17:19 | 28.54722 | -81.33652 | 107 ft | 15 kts | 309° |
| 2026-05-04 17:19 | 28.54822 | -81.33741 | 107 ft | 0 kts | 189° |